sensor_id;sensor_type;location;lat;lon;timestamp;temperature;humidity
52731;DHT22;38624;53.242;6.974;2023-05-10T00:00:37;14.40;99.90
52731;DHT22;38624;53.242;6.974;2023-05-10T00:03:02;14.40;99.90
52731;DHT22;38624;53.242;6.974;2023-05-10T00:05:30;14.40;99.90
52731;DHT22;38624;53.242;6.974;2023-05-10T00:07:56;14.40;99.90
52731;DHT22;38624;53.242;6.974;2023-05-10T00:10:21;14.30;99.90
52731;DHT22;38624;53.242;6.974;2023-05-10T00:12:47;14.30;99.90
52731;DHT22;38624;53.242;6.974;2023-05-10T00:15:12;14.40;99.90
52731;DHT22;38624;53.242;6.974;2023-05-10T00:17:38;14.40;99.90
52731;DHT22;38624;53.242;6.974;2023-05-10T00:20:04;14.30;99.90
52731;DHT22;38624;53.242;6.974;2023-05-10T00:22:30;14.30;99.90
52731;DHT22;38624;53.242;6.974;2023-05-10T00:24:57;14.30;99.90
52731;DHT22;38624;53.242;6.974;2023-05-10T00:27:22;14.40;99.90
52731;DHT22;38624;53.242;6.974;2023-05-10T00:29:48;14.40;99.90
52731;DHT22;38624;53.242;6.974;2023-05-10T00:32:14;14.40;99.90
52731;DHT22;38624;53.242;6.974;2023-05-10T00:34:39;14.40;99.90
52731;DHT22;38624;53.242;6.974;2023-05-10T00:37:05;14.40;99.90
52731;DHT22;38624;53.242;6.974;2023-05-10T00:39:31;14.30;99.90
52731;DHT22;38624;53.242;6.974;2023-05-10T00:41:56;14.20;99.90
52731;DHT22;38624;53.242;6.974;2023-05-10T00:44:22;14.10;99.90
52731;DHT22;38624;53.242;6.974;2023-05-10T00:46:48;14.00;99.90
52731;DHT22;38624;53.242;6.974;2023-05-10T00:49:13;13.90;99.90
52731;DHT22;38624;53.242;6.974;2023-05-10T00:51:39;13.70;99.90
52731;DHT22;38624;53.242;6.974;2023-05-10T00:54:04;13.60;99.90
52731;DHT22;38624;53.242;6.974;2023-05-10T00:56:30;13.40;99.90
52731;DHT22;38624;53.242;6.974;2023-05-10T00:58:56;13.30;99.90
52731;DHT22;38624;53.242;6.974;2023-05-10T01:01:22;13.30;99.90
52731;DHT22;38624;53.242;6.974;2023-05-10T01:03:48;13.20;99.90
52731;DHT22;38624;53.242;6.974;2023-05-10T01:06:14;13.20;99.90
52731;DHT22;38624;53.242;6.974;2023-05-10T01:08:39;13.20;99.90
52731;DHT22;38624;53.242;6.974;2023-05-10T01:11:06;13.10;99.90
52731;DHT22;38624;53.242;6.974;2023-05-10T01:15:57;13.00;99.90
52731;DHT22;38624;53.242;6.974;2023-05-10T01:18:23;12.90;99.90
52731;DHT22;38624;53.242;6.974;2023-05-10T01:21:04;12.90;99.90
52731;DHT22;38624;53.242;6.974;2023-05-10T01:23:53;12.90;99.90
52731;DHT22;38624;53.242;6.974;2023-05-10T01:28:58;12.80;99.90
52731;DHT22;38624;53.242;6.974;2023-05-10T01:34:16;12.70;99.90
52731;DHT22;38624;53.242;6.974;2023-05-10T01:36:50;12.80;99.90
52731;DHT22;38624;53.242;6.974;2023-05-10T01:39:29;12.80;99.90
52731;DHT22;38624;53.242;6.974;2023-05-10T01:42:01;12.80;99.90
52731;DHT22;38624;53.242;6.974;2023-05-10T01:47:29;12.80;99.90
52731;DHT22;38624;53.242;6.974;2023-05-10T01:49:56;12.80;99.90
52731;DHT22;38624;53.242;6.974;2023-05-10T01:52:25;12.90;99.90
52731;DHT22;38624;53.242;6.974;2023-05-10T01:54:53;12.90;99.90
52731;DHT22;38624;53.242;6.974;2023-05-10T01:57:20;13.00;99.90
52731;DHT22;38624;53.242;6.974;2023-05-10T01:59:48;13.00;99.90
52731;DHT22;38624;53.242;6.974;2023-05-10T02:02:15;13.00;99.90
52731;DHT22;38624;53.242;6.974;2023-05-10T02:04:40;12.90;99.90
52731;DHT22;38624;53.242;6.974;2023-05-10T02:07:07;13.00;99.90
52731;DHT22;38624;53.242;6.974;2023-05-10T02:09:33;13.00;99.90
52731;DHT22;38624;53.242;6.974;2023-05-10T02:12:01;13.00;99.90
52731;DHT22;38624;53.242;6.974;2023-05-10T02:14:28;13.00;99.90
52731;DHT22;38624;53.242;6.974;2023-05-10T02:16:54;13.00;99.90
52731;DHT22;38624;53.242;6.974;2023-05-10T02:19:21;12.90;99.90
52731;DHT22;38624;53.242;6.974;2023-05-10T02:21:47;13.00;99.90
52731;DHT22;38624;53.242;6.974;2023-05-10T02:24:13;13.00;99.90
52731;DHT22;38624;53.242;6.974;2023-05-10T02:26:40;12.90;99.90
52731;DHT22;38624;53.242;6.974;2023-05-10T02:29:06;13.00;99.90
52731;DHT22;38624;53.242;6.974;2023-05-10T02:31:32;12.90;99.90
52731;DHT22;38624;53.242;6.974;2023-05-10T02:33:58;12.90;99.90
52731;DHT22;38624;53.242;6.974;2023-05-10T02:36:25;12.80;99.90
52731;DHT22;38624;53.242;6.974;2023-05-10T02:38:52;12.80;99.90
52731;DHT22;38624;53.242;6.974;2023-05-10T02:41:19;12.80;99.90
52731;DHT22;38624;53.242;6.974;2023-05-10T02:43:46;12.70;99.90
52731;DHT22;38624;53.242;6.974;2023-05-10T02:46:12;12.70;99.90
52731;DHT22;38624;53.242;6.974;2023-05-10T02:48:38;12.70;99.90
52731;DHT22;38624;53.242;6.974;2023-05-10T02:51:04;12.70;99.90
52731;DHT22;38624;53.242;6.974;2023-05-10T02:53:31;12.70;99.90
52731;DHT22;38624;53.242;6.974;2023-05-10T02:56:04;12.70;99.90
52731;DHT22;38624;53.242;6.974;2023-05-10T02:58:32;12.60;99.90
52731;DHT22;38624;53.242;6.974;2023-05-10T03:00:59;12.70;99.90
52731;DHT22;38624;53.242;6.974;2023-05-10T03:03:24;12.70;99.90
52731;DHT22;38624;53.242;6.974;2023-05-10T03:05:50;12.70;99.90
52731;DHT22;38624;53.242;6.974;2023-05-10T03:08:16;12.70;99.90
52731;DHT22;38624;53.242;6.974;2023-05-10T03:10:47;12.70;99.90
52731;DHT22;38624;53.242;6.974;2023-05-10T03:13:18;12.60;99.90
52731;DHT22;38624;53.242;6.974;2023-05-10T03:16:00;12.60;99.90
52731;DHT22;38624;53.242;6.974;2023-05-10T03:18:29;12.60;99.90
52731;DHT22;38624;53.242;6.974;2023-05-10T03:20:59;12.60;99.90
52731;DHT22;38624;53.242;6.974;2023-05-10T03:25:51;12.70;99.90
52731;DHT22;38624;53.242;6.974;2023-05-10T03:28:17;12.80;99.90
52731;DHT22;38624;53.242;6.974;2023-05-10T03:30:44;12.80;99.90
52731;DHT22;38624;53.242;6.974;2023-05-10T03:33:10;12.90;99.90
52731;DHT22;38624;53.242;6.974;2023-05-10T03:35:36;12.80;99.90
52731;DHT22;38624;53.242;6.974;2023-05-10T03:38:01;12.80;99.90
52731;DHT22;38624;53.242;6.974;2023-05-10T03:40:27;12.80;99.90
52731;DHT22;38624;53.242;6.974;2023-05-10T03:42:57;12.80;99.90
52731;DHT22;38624;53.242;6.974;2023-05-10T03:45:23;12.80;99.90
52731;DHT22;38624;53.242;6.974;2023-05-10T03:47:49;12.80;99.90
52731;DHT22;38624;53.242;6.974;2023-05-10T03:50:14;12.80;99.90
52731;DHT22;38624;53.242;6.974;2023-05-10T03:52:40;12.70;99.90
52731;DHT22;38624;53.242;6.974;2023-05-10T03:55:05;12.70;99.90
52731;DHT22;38624;53.242;6.974;2023-05-10T03:57:31;12.70;99.90
52731;DHT22;38624;53.242;6.974;2023-05-10T03:59:57;12.70;99.90
52731;DHT22;38624;53.242;6.974;2023-05-10T04:02:23;12.70;99.90
52731;DHT22;38624;53.242;6.974;2023-05-10T04:04:48;12.70;99.90
52731;DHT22;38624;53.242;6.974;2023-05-10T04:07:14;12.70;99.90
52731;DHT22;38624;53.242;6.974;2023-05-10T04:09:40;12.70;99.90
52731;DHT22;38624;53.242;6.974;2023-05-10T04:12:05;12.70;99.90
52731;DHT22;38624;53.242;6.974;2023-05-10T04:14:31;12.70;99.90
52731;DHT22;38624;53.242;6.974;2023-05-10T04:16:56;12.70;99.90
52731;DHT22;38624;53.242;6.974;2023-05-10T04:19:22;12.70;99.90
52731;DHT22;38624;53.242;6.974;2023-05-10T04:21:48;12.70;99.90
52731;DHT22;38624;53.242;6.974;2023-05-10T04:24:13;12.70;99.90
52731;DHT22;38624;53.242;6.974;2023-05-10T04:26:39;12.70;99.90
52731;DHT22;38624;53.242;6.974;2023-05-10T04:29:05;12.70;99.90
52731;DHT22;38624;53.242;6.974;2023-05-10T04:31:30;12.70;99.90
52731;DHT22;38624;53.242;6.974;2023-05-10T04:33:56;12.70;99.90
52731;DHT22;38624;53.242;6.974;2023-05-10T04:36:21;12.70;99.90
52731;DHT22;38624;53.242;6.974;2023-05-10T04:38:47;12.70;99.90
52731;DHT22;38624;53.242;6.974;2023-05-10T04:41:13;12.70;99.90
52731;DHT22;38624;53.242;6.974;2023-05-10T04:43:38;12.70;99.90
52731;DHT22;38624;53.242;6.974;2023-05-10T04:46:04;12.80;99.90
52731;DHT22;38624;53.242;6.974;2023-05-10T04:48:30;12.80;99.90
52731;DHT22;38624;53.242;6.974;2023-05-10T04:50:56;12.80;99.90
52731;DHT22;38624;53.242;6.974;2023-05-10T04:53:21;12.80;99.90
52731;DHT22;38624;53.242;6.974;2023-05-10T04:55:47;12.70;99.90
52731;DHT22;38624;53.242;6.974;2023-05-10T04:58:13;12.70;99.90
52731;DHT22;38624;53.242;6.974;2023-05-10T05:00:38;12.70;99.90
52731;DHT22;38624;53.242;6.974;2023-05-10T05:03:04;12.70;99.90
52731;DHT22;38624;53.242;6.974;2023-05-10T05:05:30;12.70;99.90
52731;DHT22;38624;53.242;6.974;2023-05-10T05:07:56;12.70;99.90
52731;DHT22;38624;53.242;6.974;2023-05-10T05:10:21;12.60;99.90
52731;DHT22;38624;53.242;6.974;2023-05-10T05:12:47;12.60;99.90
52731;DHT22;38624;53.242;6.974;2023-05-10T05:15:12;12.60;99.90
52731;DHT22;38624;53.242;6.974;2023-05-10T05:17:38;12.50;99.90
52731;DHT22;38624;53.242;6.974;2023-05-10T05:20:04;12.50;99.90
52731;DHT22;38624;53.242;6.974;2023-05-10T05:22:30;12.40;99.90
52731;DHT22;38624;53.242;6.974;2023-05-10T05:24:55;12.50;99.90
52731;DHT22;38624;53.242;6.974;2023-05-10T05:27:21;12.50;99.90
52731;DHT22;38624;53.242;6.974;2023-05-10T05:29:55;12.50;99.90
52731;DHT22;38624;53.242;6.974;2023-05-10T05:32:21;12.50;99.90
52731;DHT22;38624;53.242;6.974;2023-05-10T05:34:47;12.50;99.90
52731;DHT22;38624;53.242;6.974;2023-05-10T05:37:13;12.40;99.90
52731;DHT22;38624;53.242;6.974;2023-05-10T05:39:39;12.20;99.90
52731;DHT22;38624;53.242;6.974;2023-05-10T05:42:05;12.10;99.90
52731;DHT22;38624;53.242;6.974;2023-05-10T05:44:30;12.10;99.90
52731;DHT22;38624;53.242;6.974;2023-05-10T05:46:56;12.00;99.90
52731;DHT22;38624;53.242;6.974;2023-05-10T05:49:21;11.90;99.90
52731;DHT22;38624;53.242;6.974;2023-05-10T05:51:47;12.00;99.90
52731;DHT22;38624;53.242;6.974;2023-05-10T05:54:14;11.80;99.90
52731;DHT22;38624;53.242;6.974;2023-05-10T05:56:40;11.90;99.90
52731;DHT22;38624;53.242;6.974;2023-05-10T05:59:05;11.90;99.90
52731;DHT22;38624;53.242;6.974;2023-05-10T06:01:31;11.80;99.90
52731;DHT22;38624;53.242;6.974;2023-05-10T06:03:57;11.90;99.90
52731;DHT22;38624;53.242;6.974;2023-05-10T06:06:22;11.80;99.90
52731;DHT22;38624;53.242;6.974;2023-05-10T06:08:48;11.90;99.90
52731;DHT22;38624;53.242;6.974;2023-05-10T06:11:13;11.80;99.90
52731;DHT22;38624;53.242;6.974;2023-05-10T06:13:39;11.80;99.90
52731;DHT22;38624;53.242;6.974;2023-05-10T06:16:05;11.80;99.90
52731;DHT22;38624;53.242;6.974;2023-05-10T06:18:31;11.80;99.90
52731;DHT22;38624;53.242;6.974;2023-05-10T06:20:56;11.90;99.90
52731;DHT22;38624;53.242;6.974;2023-05-10T06:23:22;11.90;99.90
52731;DHT22;38624;53.242;6.974;2023-05-10T06:25:48;12.00;99.90
52731;DHT22;38624;53.242;6.974;2023-05-10T06:28:13;12.00;99.90
52731;DHT22;38624;53.242;6.974;2023-05-10T06:30:39;11.90;99.90
52731;DHT22;38624;53.242;6.974;2023-05-10T06:33:04;12.00;99.90
52731;DHT22;38624;53.242;6.974;2023-05-10T06:35:30;11.90;99.90
52731;DHT22;38624;53.242;6.974;2023-05-10T06:37:58;12.00;99.90
52731;DHT22;38624;53.242;6.974;2023-05-10T06:40:24;12.00;99.90
52731;DHT22;38624;53.242;6.974;2023-05-10T06:42:49;12.00;99.90
52731;DHT22;38624;53.242;6.974;2023-05-10T06:45:15;12.00;99.90
52731;DHT22;38624;53.242;6.974;2023-05-10T06:47:41;12.00;99.90
52731;DHT22;38624;53.242;6.974;2023-05-10T06:50:07;12.00;99.90
52731;DHT22;38624;53.242;6.974;2023-05-10T06:52:33;12.00;99.90
52731;DHT22;38624;53.242;6.974;2023-05-10T06:54:59;12.00;99.90
52731;DHT22;38624;53.242;6.974;2023-05-10T06:57:24;12.00;99.90
52731;DHT22;38624;53.242;6.974;2023-05-10T06:59:50;12.00;99.90
52731;DHT22;38624;53.242;6.974;2023-05-10T07:02:15;12.00;99.90
52731;DHT22;38624;53.242;6.974;2023-05-10T07:04:41;12.00;99.90
52731;DHT22;38624;53.242;6.974;2023-05-10T07:07:07;12.00;99.90
52731;DHT22;38624;53.242;6.974;2023-05-10T07:09:33;11.90;99.90
52731;DHT22;38624;53.242;6.974;2023-05-10T07:11:59;11.90;99.90
52731;DHT22;38624;53.242;6.974;2023-05-10T07:14:24;11.90;99.90
52731;DHT22;38624;53.242;6.974;2023-05-10T07:16:50;11.90;99.90
52731;DHT22;38624;53.242;6.974;2023-05-10T07:19:16;11.90;99.90
52731;DHT22;38624;53.242;6.974;2023-05-10T07:21:41;11.90;99.90
52731;DHT22;38624;53.242;6.974;2023-05-10T07:24:08;12.00;99.90
52731;DHT22;38624;53.242;6.974;2023-05-10T07:26:34;12.00;99.90
52731;DHT22;38624;53.242;6.974;2023-05-10T07:28:59;11.90;99.90
52731;DHT22;38624;53.242;6.974;2023-05-10T07:31:25;12.00;99.90
52731;DHT22;38624;53.242;6.974;2023-05-10T07:33:51;11.90;99.90
52731;DHT22;38624;53.242;6.974;2023-05-10T07:36:16;11.80;99.90
52731;DHT22;38624;53.242;6.974;2023-05-10T07:38:42;11.90;99.90
52731;DHT22;38624;53.242;6.974;2023-05-10T07:41:07;11.80;99.90
52731;DHT22;38624;53.242;6.974;2023-05-10T07:43:33;11.80;99.90
52731;DHT22;38624;53.242;6.974;2023-05-10T07:45:58;11.80;99.90
52731;DHT22;38624;53.242;6.974;2023-05-10T07:48:25;11.70;99.90
52731;DHT22;38624;53.242;6.974;2023-05-10T07:50:51;11.80;99.90
52731;DHT22;38624;53.242;6.974;2023-05-10T07:53:16;11.80;99.90
52731;DHT22;38624;53.242;6.974;2023-05-10T07:55:42;11.80;99.90
52731;DHT22;38624;53.242;6.974;2023-05-10T07:58:08;11.90;99.90
52731;DHT22;38624;53.242;6.974;2023-05-10T08:00:33;11.80;99.90
52731;DHT22;38624;53.242;6.974;2023-05-10T08:02:59;11.90;99.90
52731;DHT22;38624;53.242;6.974;2023-05-10T08:05:25;11.90;99.90
52731;DHT22;38624;53.242;6.974;2023-05-10T08:07:50;11.80;99.90
52731;DHT22;38624;53.242;6.974;2023-05-10T08:10:16;11.80;99.90
52731;DHT22;38624;53.242;6.974;2023-05-10T08:12:42;11.80;99.90
52731;DHT22;38624;53.242;6.974;2023-05-10T08:15:08;11.90;99.90
52731;DHT22;38624;53.242;6.974;2023-05-10T08:17:33;11.80;99.90
52731;DHT22;38624;53.242;6.974;2023-05-10T08:19:59;11.70;99.90
52731;DHT22;38624;53.242;6.974;2023-05-10T08:22:25;11.80;99.90
52731;DHT22;38624;53.242;6.974;2023-05-10T08:24:50;11.90;99.90
52731;DHT22;38624;53.242;6.974;2023-05-10T08:27:16;11.90;99.90
52731;DHT22;38624;53.242;6.974;2023-05-10T08:29:41;12.00;99.90
52731;DHT22;38624;53.242;6.974;2023-05-10T08:32:07;11.90;99.90
52731;DHT22;38624;53.242;6.974;2023-05-10T08:34:32;12.00;99.90
52731;DHT22;38624;53.242;6.974;2023-05-10T08:36:58;12.00;99.90
52731;DHT22;38624;53.242;6.974;2023-05-10T08:39:23;12.00;99.90
52731;DHT22;38624;53.242;6.974;2023-05-10T08:41:50;11.90;99.90
52731;DHT22;38624;53.242;6.974;2023-05-10T08:44:16;11.90;99.90
52731;DHT22;38624;53.242;6.974;2023-05-10T08:46:44;11.90;99.90
52731;DHT22;38624;53.242;6.974;2023-05-10T08:49:11;11.90;99.90
52731;DHT22;38624;53.242;6.974;2023-05-10T08:51:39;11.80;99.90
52731;DHT22;38624;53.242;6.974;2023-05-10T08:54:05;11.90;99.90
52731;DHT22;38624;53.242;6.974;2023-05-10T08:56:31;11.80;99.90
52731;DHT22;38624;53.242;6.974;2023-05-10T08:58:57;11.90;99.90
52731;DHT22;38624;53.242;6.974;2023-05-10T09:01:23;11.90;99.90
52731;DHT22;38624;53.242;6.974;2023-05-10T09:03:49;11.90;99.90
52731;DHT22;38624;53.242;6.974;2023-05-10T09:06:15;12.00;99.90
52731;DHT22;38624;53.242;6.974;2023-05-10T09:08:41;12.10;99.90
52731;DHT22;38624;53.242;6.974;2023-05-10T09:11:07;12.10;99.90
52731;DHT22;38624;53.242;6.974;2023-05-10T09:13:34;12.10;99.90
52731;DHT22;38624;53.242;6.974;2023-05-10T09:16:00;12.10;99.90
52731;DHT22;38624;53.242;6.974;2023-05-10T09:18:26;12.10;99.90
52731;DHT22;38624;53.242;6.974;2023-05-10T09:20:51;12.20;99.90
52731;DHT22;38624;53.242;6.974;2023-05-10T09:23:17;12.30;99.90
52731;DHT22;38624;53.242;6.974;2023-05-10T09:25:42;12.40;99.90
52731;DHT22;38624;53.242;6.974;2023-05-10T09:28:08;12.50;99.90
52731;DHT22;38624;53.242;6.974;2023-05-10T09:30:36;12.50;99.90
52731;DHT22;38624;53.242;6.974;2023-05-10T09:33:02;12.60;99.90
52731;DHT22;38624;53.242;6.974;2023-05-10T09:35:28;12.60;99.90
52731;DHT22;38624;53.242;6.974;2023-05-10T09:37:55;12.50;99.90
52731;DHT22;38624;53.242;6.974;2023-05-10T09:40:22;12.50;99.90
52731;DHT22;38624;53.242;6.974;2023-05-10T09:42:55;12.70;99.90
52731;DHT22;38624;53.242;6.974;2023-05-10T09:45:21;12.70;99.90
52731;DHT22;38624;53.242;6.974;2023-05-10T09:47:47;12.70;99.90
52731;DHT22;38624;53.242;6.974;2023-05-10T09:50:13;12.70;99.90
52731;DHT22;38624;53.242;6.974;2023-05-10T09:52:54;12.50;99.90
52731;DHT22;38624;53.242;6.974;2023-05-10T09:55:23;12.60;99.90
52731;DHT22;38624;53.242;6.974;2023-05-10T09:57:49;12.60;99.90
52731;DHT22;38624;53.242;6.974;2023-05-10T10:00:23;12.50;99.90
52731;DHT22;38624;53.242;6.974;2023-05-10T10:02:55;12.50;99.90
52731;DHT22;38624;53.242;6.974;2023-05-10T10:05:27;12.40;99.90
52731;DHT22;38624;53.242;6.974;2023-05-10T10:07:53;12.60;99.90
52731;DHT22;38624;53.242;6.974;2023-05-10T10:10:19;12.60;99.90
52731;DHT22;38624;53.242;6.974;2023-05-10T10:12:44;12.80;99.90
52731;DHT22;38624;53.242;6.974;2023-05-10T10:15:10;12.80;99.90
52731;DHT22;38624;53.242;6.974;2023-05-10T10:17:36;12.80;99.90
52731;DHT22;38624;53.242;6.974;2023-05-10T10:20:03;12.90;99.90
52731;DHT22;38624;53.242;6.974;2023-05-10T10:22:29;13.00;99.90
52731;DHT22;38624;53.242;6.974;2023-05-10T10:24:54;12.70;99.90
52731;DHT22;38624;53.242;6.974;2023-05-10T10:27:24;12.60;99.90
52731;DHT22;38624;53.242;6.974;2023-05-10T10:29:57;12.70;99.90
52731;DHT22;38624;53.242;6.974;2023-05-10T10:34:56;12.80;99.90
52731;DHT22;38624;53.242;6.974;2023-05-10T10:37:22;12.80;99.90
52731;DHT22;38624;53.242;6.974;2023-05-10T10:39:48;12.90;99.90
52731;DHT22;38624;53.242;6.974;2023-05-10T10:42:13;12.90;99.90
52731;DHT22;38624;53.242;6.974;2023-05-10T10:44:39;12.90;99.90
52731;DHT22;38624;53.242;6.974;2023-05-10T10:52:22;13.00;99.90
52731;DHT22;38624;53.242;6.974;2023-05-10T10:55:30;13.10;99.90
52731;DHT22;38624;53.242;6.974;2023-05-10T11:02:46;13.10;99.90
52731;DHT22;38624;53.242;6.974;2023-05-10T11:07:58;13.10;99.90
52731;DHT22;38624;53.242;6.974;2023-05-10T11:10:24;13.00;99.90
52731;DHT22;38624;53.242;6.974;2023-05-10T11:12:58;13.00;99.90
52731;DHT22;38624;53.242;6.974;2023-05-10T11:15:32;13.00;99.90
52731;DHT22;38624;53.242;6.974;2023-05-10T11:17:58;12.90;99.90
52731;DHT22;38624;53.242;6.974;2023-05-10T11:20:27;13.20;99.90
52731;DHT22;38624;53.242;6.974;2023-05-10T11:22:59;13.20;99.90
52731;DHT22;38624;53.242;6.974;2023-05-10T11:25:39;13.10;99.90
52731;DHT22;38624;53.242;6.974;2023-05-10T11:28:05;13.30;99.90
52731;DHT22;38624;53.242;6.974;2023-05-10T11:30:31;13.50;99.90
52731;DHT22;38624;53.242;6.974;2023-05-10T11:32:57;13.80;99.90
52731;DHT22;38624;53.242;6.974;2023-05-10T11:35:22;14.20;99.90
52731;DHT22;38624;53.242;6.974;2023-05-10T11:37:48;14.70;99.90
52731;DHT22;38624;53.242;6.974;2023-05-10T11:40:13;15.10;99.90
52731;DHT22;38624;53.242;6.974;2023-05-10T11:42:39;15.40;99.90
52731;DHT22;38624;53.242;6.974;2023-05-10T11:45:05;15.50;99.90
52731;DHT22;38624;53.242;6.974;2023-05-10T11:47:31;15.40;99.90
52731;DHT22;38624;53.242;6.974;2023-05-10T11:49:57;15.20;99.90
52731;DHT22;38624;53.242;6.974;2023-05-10T11:52:22;15.20;99.90
52731;DHT22;38624;53.242;6.974;2023-05-10T11:54:51;15.00;99.90
52731;DHT22;38624;53.242;6.974;2023-05-10T11:57:20;14.80;99.90
52731;DHT22;38624;53.242;6.974;2023-05-10T11:59:46;14.40;99.90
52731;DHT22;38624;53.242;6.974;2023-05-10T12:02:15;14.40;99.90
52731;DHT22;38624;53.242;6.974;2023-05-10T12:04:41;14.20;99.90
52731;DHT22;38624;53.242;6.974;2023-05-10T12:07:06;14.30;99.90
52731;DHT22;38624;53.242;6.974;2023-05-10T12:09:32;14.40;99.90
52731;DHT22;38624;53.242;6.974;2023-05-10T12:11:57;14.30;99.90
52731;DHT22;38624;53.242;6.974;2023-05-10T12:14:23;14.30;99.90
52731;DHT22;38624;53.242;6.974;2023-05-10T12:16:49;14.30;99.90
52731;DHT22;38624;53.242;6.974;2023-05-10T12:19:18;14.20;99.90
52731;DHT22;38624;53.242;6.974;2023-05-10T12:21:44;14.40;99.90
52731;DHT22;38624;53.242;6.974;2023-05-10T12:24:09;14.50;99.90
52731;DHT22;38624;53.242;6.974;2023-05-10T12:26:35;14.60;99.90
52731;DHT22;38624;53.242;6.974;2023-05-10T12:29:12;14.90;99.90
52731;DHT22;38624;53.242;6.974;2023-05-10T12:34:31;15.30;99.90
52731;DHT22;38624;53.242;6.974;2023-05-10T12:36:58;15.50;99.90
52731;DHT22;38624;53.242;6.974;2023-05-10T12:39:24;15.80;99.90
52731;DHT22;38624;53.242;6.974;2023-05-10T12:41:50;15.60;99.90
52731;DHT22;38624;53.242;6.974;2023-05-10T12:44:16;15.80;99.90
52731;DHT22;38624;53.242;6.974;2023-05-10T12:46:42;16.00;99.90
52731;DHT22;38624;53.242;6.974;2023-05-10T12:49:07;16.20;99.90
52731;DHT22;38624;53.242;6.974;2023-05-10T12:51:33;16.10;99.90
52731;DHT22;38624;53.242;6.974;2023-05-10T12:53:58;15.90;99.90
52731;DHT22;38624;53.242;6.974;2023-05-10T12:56:24;15.90;99.90
52731;DHT22;38624;53.242;6.974;2023-05-10T12:58:50;15.70;99.90
52731;DHT22;38624;53.242;6.974;2023-05-10T13:01:16;15.40;99.90
52731;DHT22;38624;53.242;6.974;2023-05-10T13:03:41;15.40;99.90
52731;DHT22;38624;53.242;6.974;2023-05-10T13:06:08;15.30;99.90
52731;DHT22;38624;53.242;6.974;2023-05-10T13:08:34;15.10;99.90
52731;DHT22;38624;53.242;6.974;2023-05-10T13:11:00;15.20;99.90
52731;DHT22;38624;53.242;6.974;2023-05-10T13:13:25;15.30;99.90
52731;DHT22;38624;53.242;6.974;2023-05-10T13:15:51;15.40;99.90
52731;DHT22;38624;53.242;6.974;2023-05-10T13:18:17;15.50;99.90
52731;DHT22;38624;53.242;6.974;2023-05-10T13:20:42;15.50;99.90
52731;DHT22;38624;53.242;6.974;2023-05-10T13:23:09;15.50;99.90
52731;DHT22;38624;53.242;6.974;2023-05-10T13:25:35;15.30;99.90
52731;DHT22;38624;53.242;6.974;2023-05-10T13:28:01;15.30;99.90
52731;DHT22;38624;53.242;6.974;2023-05-10T13:30:26;15.30;99.90
52731;DHT22;38624;53.242;6.974;2023-05-10T13:32:52;15.20;99.90
52731;DHT22;38624;53.242;6.974;2023-05-10T13:35:17;15.10;99.90
52731;DHT22;38624;53.242;6.974;2023-05-10T13:37:43;15.00;99.90
52731;DHT22;38624;53.242;6.974;2023-05-10T13:40:09;14.90;99.90
52731;DHT22;38624;53.242;6.974;2023-05-10T13:42:34;14.70;99.90
52731;DHT22;38624;53.242;6.974;2023-05-10T13:45:00;14.60;99.90
52731;DHT22;38624;53.242;6.974;2023-05-10T13:47:27;14.40;99.90
52731;DHT22;38624;53.242;6.974;2023-05-10T13:49:52;14.30;99.90
52731;DHT22;38624;53.242;6.974;2023-05-10T13:52:18;14.40;99.90
52731;DHT22;38624;53.242;6.974;2023-05-10T13:54:44;14.30;99.90
52731;DHT22;38624;53.242;6.974;2023-05-10T13:57:09;14.50;99.90
52731;DHT22;38624;53.242;6.974;2023-05-10T13:59:37;14.70;99.90
52731;DHT22;38624;53.242;6.974;2023-05-10T14:02:03;14.90;99.90
52731;DHT22;38624;53.242;6.974;2023-05-10T14:04:29;15.00;99.90
52731;DHT22;38624;53.242;6.974;2023-05-10T14:06:54;15.20;99.90
52731;DHT22;38624;53.242;6.974;2023-05-10T14:09:20;15.50;99.90
52731;DHT22;38624;53.242;6.974;2023-05-10T14:11:46;15.60;99.90
52731;DHT22;38624;53.242;6.974;2023-05-10T14:14:12;15.70;99.90
52731;DHT22;38624;53.242;6.974;2023-05-10T14:16:41;15.80;99.90
52731;DHT22;38624;53.242;6.974;2023-05-10T14:19:07;15.90;99.90
52731;DHT22;38624;53.242;6.974;2023-05-10T14:21:32;16.10;99.90
52731;DHT22;38624;53.242;6.974;2023-05-10T14:23:58;16.10;99.90
52731;DHT22;38624;53.242;6.974;2023-05-10T14:26:24;16.20;99.90
52731;DHT22;38624;53.242;6.974;2023-05-10T14:28:49;16.40;99.90
52731;DHT22;38624;53.242;6.974;2023-05-10T14:31:15;16.70;99.90
52731;DHT22;38624;53.242;6.974;2023-05-10T14:33:42;16.90;99.90
52731;DHT22;38624;53.242;6.974;2023-05-10T14:36:08;17.10;99.90
52731;DHT22;38624;53.242;6.974;2023-05-10T14:38:34;17.00;99.90
52731;DHT22;38624;53.242;6.974;2023-05-10T14:40:59;17.00;99.90
52731;DHT22;38624;53.242;6.974;2023-05-10T14:43:25;17.00;99.90
52731;DHT22;38624;53.242;6.974;2023-05-10T14:45:50;16.90;99.90
52731;DHT22;38624;53.242;6.974;2023-05-10T14:48:16;16.90;99.90
52731;DHT22;38624;53.242;6.974;2023-05-10T14:50:43;16.80;99.90
52731;DHT22;38624;53.242;6.974;2023-05-10T14:53:08;16.40;99.90
52731;DHT22;38624;53.242;6.974;2023-05-10T14:55:34;16.20;99.90
52731;DHT22;38624;53.242;6.974;2023-05-10T14:58:01;16.20;99.90
52731;DHT22;38624;53.242;6.974;2023-05-10T15:00:27;16.20;99.90
52731;DHT22;38624;53.242;6.974;2023-05-10T15:02:53;16.20;99.90
52731;DHT22;38624;53.242;6.974;2023-05-10T15:05:18;16.10;99.90
52731;DHT22;38624;53.242;6.974;2023-05-10T15:07:44;16.10;99.90
52731;DHT22;38624;53.242;6.974;2023-05-10T15:10:10;16.00;99.90
52731;DHT22;38624;53.242;6.974;2023-05-10T15:12:36;16.00;99.90
52731;DHT22;38624;53.242;6.974;2023-05-10T15:15:02;15.70;99.90
52731;DHT22;38624;53.242;6.974;2023-05-10T15:17:28;15.60;99.90
52731;DHT22;38624;53.242;6.974;2023-05-10T15:19:53;15.70;99.90
52731;DHT22;38624;53.242;6.974;2023-05-10T15:22:19;15.80;99.90
52731;DHT22;38624;53.242;6.974;2023-05-10T15:24:44;15.80;99.90
52731;DHT22;38624;53.242;6.974;2023-05-10T15:27:10;15.80;99.90
52731;DHT22;38624;53.242;6.974;2023-05-10T15:29:36;15.80;99.90
52731;DHT22;38624;53.242;6.974;2023-05-10T15:32:01;15.80;99.90
52731;DHT22;38624;53.242;6.974;2023-05-10T15:34:28;15.70;99.90
52731;DHT22;38624;53.242;6.974;2023-05-10T15:36:53;15.70;99.90
52731;DHT22;38624;53.242;6.974;2023-05-10T15:39:19;15.70;99.90
52731;DHT22;38624;53.242;6.974;2023-05-10T15:41:45;15.70;99.90
52731;DHT22;38624;53.242;6.974;2023-05-10T15:44:10;15.60;99.90
52731;DHT22;38624;53.242;6.974;2023-05-10T15:46:36;15.60;99.90
52731;DHT22;38624;53.242;6.974;2023-05-10T15:49:03;15.60;99.90
52731;DHT22;38624;53.242;6.974;2023-05-10T15:51:28;15.60;99.90
52731;DHT22;38624;53.242;6.974;2023-05-10T15:53:54;15.60;99.90
52731;DHT22;38624;53.242;6.974;2023-05-10T15:56:20;15.50;99.90